sensor_id;sensor_type;location;lat;lon;timestamp;P1;durP1;ratioP1;P2;durP2;ratioP2
70729;SDS011;58315;53.336;55.932;2023-02-27T00:01:44;10.15;;;4.10;;
70729;SDS011;58315;53.336;55.932;2023-02-27T00:04:11;15.30;;;3.40;;
70729;SDS011;58315;53.336;55.932;2023-02-27T00:06:37;7.55;;;3.33;;
70729;SDS011;58315;53.336;55.932;2023-02-27T00:09:22;11.40;;;3.42;;
70729;SDS011;58315;53.336;55.932;2023-02-27T00:11:48;7.68;;;3.78;;
70729;SDS011;58315;53.336;55.932;2023-02-27T00:14:13;11.50;;;3.92;;
70729;SDS011;58315;53.336;55.932;2023-02-27T00:16:39;6.22;;;3.65;;
70729;SDS011;58315;53.336;55.932;2023-02-27T00:19:05;14.02;;;5.38;;
70729;SDS011;58315;53.336;55.932;2023-02-27T00:21:32;11.25;;;2.38;;
70729;SDS011;58315;53.336;55.932;2023-02-27T00:23:59;13.75;;;4.20;;
70729;SDS011;58315;53.336;55.932;2023-02-27T00:26:25;10.85;;;4.35;;
70729;SDS011;58315;53.336;55.932;2023-02-27T00:28:51;13.32;;;5.55;;
70729;SDS011;58315;53.336;55.932;2023-02-27T00:31:17;16.02;;;2.90;;
70729;SDS011;58315;53.336;55.932;2023-02-27T00:33:44;7.28;;;2.70;;
70729;SDS011;58315;53.336;55.932;2023-02-27T00:36:10;8.00;;;3.20;;
70729;SDS011;58315;53.336;55.932;2023-02-27T00:38:35;10.60;;;3.15;;
70729;SDS011;58315;53.336;55.932;2023-02-27T00:41:01;20.88;;;2.88;;
70729;SDS011;58315;53.336;55.932;2023-02-27T00:43:27;13.63;;;3.80;;
70729;SDS011;58315;53.336;55.932;2023-02-27T00:45:55;8.52;;;4.10;;
70729;SDS011;58315;53.336;55.932;2023-02-27T00:48:21;13.63;;;3.72;;
70729;SDS011;58315;53.336;55.932;2023-02-27T00:50:48;12.50;;;3.88;;
70729;SDS011;58315;53.336;55.932;2023-02-27T00:53:14;18.58;;;4.35;;
70729;SDS011;58315;53.336;55.932;2023-02-27T00:55:41;14.98;;;3.33;;
70729;SDS011;58315;53.336;55.932;2023-02-27T00:58:07;11.18;;;3.33;;
70729;SDS011;58315;53.336;55.932;2023-02-27T01:00:33;7.85;;;3.75;;
70729;SDS011;58315;53.336;55.932;2023-02-27T01:02:59;21.27;;;3.15;;
70729;SDS011;58315;53.336;55.932;2023-02-27T01:05:25;8.43;;;4.07;;
70729;SDS011;58315;53.336;55.932;2023-02-27T01:07:51;9.77;;;4.05;;
70729;SDS011;58315;53.336;55.932;2023-02-27T01:10:18;16.15;;;2.70;;
70729;SDS011;58315;53.336;55.932;2023-02-27T01:12:44;29.92;;;4.28;;
70729;SDS011;58315;53.336;55.932;2023-02-27T01:15:10;6.38;;;3.22;;
70729;SDS011;58315;53.336;55.932;2023-02-27T01:17:37;4.38;;;2.50;;
70729;SDS011;58315;53.336;55.932;2023-02-27T01:20:04;11.15;;;3.97;;
70729;SDS011;58315;53.336;55.932;2023-02-27T01:22:31;6.97;;;3.88;;
70729;SDS011;58315;53.336;55.932;2023-02-27T01:24:58;7.40;;;4.25;;
70729;SDS011;58315;53.336;55.932;2023-02-27T01:27:24;7.03;;;2.58;;
70729;SDS011;58315;53.336;55.932;2023-02-27T01:29:50;10.82;;;4.03;;
70729;SDS011;58315;53.336;55.932;2023-02-27T01:32:16;3.67;;;2.10;;
70729;SDS011;58315;53.336;55.932;2023-02-27T01:34:42;8.35;;;3.67;;
70729;SDS011;58315;53.336;55.932;2023-02-27T01:37:08;6.10;;;2.35;;
70729;SDS011;58315;53.336;55.932;2023-02-27T01:39:34;4.78;;;2.55;;
70729;SDS011;58315;53.336;55.932;2023-02-27T01:42:01;8.85;;;3.63;;
70729;SDS011;58315;53.336;55.932;2023-02-27T01:44:28;10.55;;;3.90;;
70729;SDS011;58315;53.336;55.932;2023-02-27T01:46:55;13.23;;;3.80;;
70729;SDS011;58315;53.336;55.932;2023-02-27T01:49:29;13.15;;;4.03;;
70729;SDS011;58315;53.336;55.932;2023-02-27T01:52:03;3.90;;;2.38;;
70729;SDS011;58315;53.336;55.932;2023-02-27T01:54:35;7.32;;;3.25;;
70729;SDS011;58315;53.336;55.932;2023-02-27T01:57:05;9.20;;;3.53;;
70729;SDS011;58315;53.336;55.932;2023-02-27T01:59:35;4.65;;;2.50;;
70729;SDS011;58315;53.336;55.932;2023-02-27T02:02:06;13.48;;;4.88;;
70729;SDS011;58315;53.336;55.932;2023-02-27T02:04:37;11.80;;;2.72;;
70729;SDS011;58315;53.336;55.932;2023-02-27T02:07:05;21.17;;;3.17;;
70729;SDS011;58315;53.336;55.932;2023-02-27T02:09:47;10.00;;;4.60;;
70729;SDS011;58315;53.336;55.932;2023-02-27T02:12:17;16.08;;;4.15;;
70729;SDS011;58315;53.336;55.932;2023-02-27T02:14:44;12.98;;;3.97;;
70729;SDS011;58315;53.336;55.932;2023-02-27T02:25:30;18.50;;;3.92;;
70729;SDS011;58315;53.336;55.932;2023-02-27T02:50:41;20.65;;;5.10;;
70729;SDS011;58315;53.336;55.932;2023-02-27T02:56:24;8.80;;;4.28;;
70729;SDS011;58315;53.336;55.932;2023-02-27T03:01:52;10.10;;;4.00;;
70729;SDS011;58315;53.336;55.932;2023-02-27T03:04:42;6.13;;;2.60;;
70729;SDS011;58315;53.336;55.932;2023-02-27T03:07:22;7.47;;;2.45;;
70729;SDS011;58315;53.336;55.932;2023-02-27T03:12:38;11.32;;;3.58;;
70729;SDS011;58315;53.336;55.932;2023-02-27T03:15:28;21.13;;;3.70;;
70729;SDS011;58315;53.336;55.932;2023-02-27T03:20:44;9.82;;;3.70;;
70729;SDS011;58315;53.336;55.932;2023-02-27T03:23:17;12.40;;;4.30;;
70729;SDS011;58315;53.336;55.932;2023-02-27T03:25:48;12.80;;;3.67;;
70729;SDS011;58315;53.336;55.932;2023-02-27T03:28:35;13.48;;;3.80;;
70729;SDS011;58315;53.336;55.932;2023-02-27T03:31:06;10.02;;;3.83;;
70729;SDS011;58315;53.336;55.932;2023-02-27T03:33:39;11.80;;;3.58;;
70729;SDS011;58315;53.336;55.932;2023-02-27T03:36:24;13.98;;;4.68;;
70729;SDS011;58315;53.336;55.932;2023-02-27T03:39:17;16.45;;;3.65;;
70729;SDS011;58315;53.336;55.932;2023-02-27T03:47:41;19.50;;;5.03;;
70729;SDS011;58315;53.336;55.932;2023-02-27T03:50:08;20.73;;;3.45;;
70729;SDS011;58315;53.336;55.932;2023-02-27T03:52:35;15.25;;;4.10;;
70729;SDS011;58315;53.336;55.932;2023-02-27T03:55:03;14.40;;;4.00;;
70729;SDS011;58315;53.336;55.932;2023-02-27T03:57:34;16.05;;;5.25;;
70729;SDS011;58315;53.336;55.932;2023-02-27T04:00:02;13.88;;;4.13;;
70729;SDS011;58315;53.336;55.932;2023-02-27T04:02:40;7.28;;;4.20;;
70729;SDS011;58315;53.336;55.932;2023-02-27T04:05:09;16.35;;;4.10;;
70729;SDS011;58315;53.336;55.932;2023-02-27T04:19:23;13.20;;;3.67;;
70729;SDS011;58315;53.336;55.932;2023-02-27T04:27:37;6.93;;;2.30;;
70729;SDS011;58315;53.336;55.932;2023-02-27T04:35:23;9.80;;;3.78;;
70729;SDS011;58315;53.336;55.932;2023-02-27T04:38:16;15.63;;;4.95;;
70729;SDS011;58315;53.336;55.932;2023-02-27T04:40:52;11.73;;;3.90;;
70729;SDS011;58315;53.336;55.932;2023-02-27T04:43:22;25.20;;;5.03;;
70729;SDS011;58315;53.336;55.932;2023-02-27T04:45:51;8.43;;;3.45;;
70729;SDS011;58315;53.336;55.932;2023-02-27T04:48:37;14.95;;;4.93;;
70729;SDS011;58315;53.336;55.932;2023-02-27T04:51:15;9.23;;;3.67;;
70729;SDS011;58315;53.336;55.932;2023-02-27T04:56:21;9.70;;;3.65;;
70729;SDS011;58315;53.336;55.932;2023-02-27T04:58:52;10.85;;;4.25;;
70729;SDS011;58315;53.336;55.932;2023-02-27T05:01:27;11.50;;;4.50;;
70729;SDS011;58315;53.336;55.932;2023-02-27T05:03:58;11.63;;;5.20;;
70729;SDS011;58315;53.336;55.932;2023-02-27T05:06:28;9.18;;;3.97;;
70729;SDS011;58315;53.336;55.932;2023-02-27T05:12:04;20.88;;;5.05;;
70729;SDS011;58315;53.336;55.932;2023-02-27T05:14:44;8.07;;;3.95;;
70729;SDS011;58315;53.336;55.932;2023-02-27T05:17:25;25.38;;;5.03;;
70729;SDS011;58315;53.336;55.932;2023-02-27T05:20:01;10.70;;;3.72;;
70729;SDS011;58315;53.336;55.932;2023-02-27T05:22:33;12.80;;;4.30;;
70729;SDS011;58315;53.336;55.932;2023-02-27T05:27:52;8.48;;;2.78;;
70729;SDS011;58315;53.336;55.932;2023-02-27T05:31:01;11.23;;;3.88;;
70729;SDS011;58315;53.336;55.932;2023-02-27T05:33:56;15.95;;;4.13;;
70729;SDS011;58315;53.336;55.932;2023-02-27T05:36:35;8.23;;;3.67;;
70729;SDS011;58315;53.336;55.932;2023-02-27T05:39:08;12.07;;;3.65;;
70729;SDS011;58315;53.336;55.932;2023-02-27T05:41:38;11.10;;;3.53;;
70729;SDS011;58315;53.336;55.932;2023-02-27T05:44:28;8.70;;;3.58;;
70729;SDS011;58315;53.336;55.932;2023-02-27T05:46:59;10.02;;;4.80;;
70729;SDS011;58315;53.336;55.932;2023-02-27T05:51:58;10.55;;;3.60;;
70729;SDS011;58315;53.336;55.932;2023-02-27T05:57:14;12.10;;;4.32;;
70729;SDS011;58315;53.336;55.932;2023-02-27T06:02:38;12.20;;;3.35;;
70729;SDS011;58315;53.336;55.932;2023-02-27T06:05:06;14.63;;;4.68;;
70729;SDS011;58315;53.336;55.932;2023-02-27T06:07:33;13.55;;;3.92;;
70729;SDS011;58315;53.336;55.932;2023-02-27T06:10:00;25.50;;;4.85;;
70729;SDS011;58315;53.336;55.932;2023-02-27T06:12:27;14.95;;;5.32;;
70729;SDS011;58315;53.336;55.932;2023-02-27T06:14:53;11.70;;;5.00;;
70729;SDS011;58315;53.336;55.932;2023-02-27T06:17:18;9.00;;;4.00;;
70729;SDS011;58315;53.336;55.932;2023-02-27T06:19:45;16.55;;;5.10;;
70729;SDS011;58315;53.336;55.932;2023-02-27T06:22:11;12.70;;;4.20;;
70729;SDS011;58315;53.336;55.932;2023-02-27T06:24:37;9.65;;;4.30;;
70729;SDS011;58315;53.336;55.932;2023-02-27T06:27:03;8.30;;;4.07;;
70729;SDS011;58315;53.336;55.932;2023-02-27T06:29:29;9.55;;;3.90;;
70729;SDS011;58315;53.336;55.932;2023-02-27T06:31:54;21.52;;;4.45;;
70729;SDS011;58315;53.336;55.932;2023-02-27T06:34:20;12.30;;;4.57;;
70729;SDS011;58315;53.336;55.932;2023-02-27T06:36:47;8.93;;;3.67;;
70729;SDS011;58315;53.336;55.932;2023-02-27T06:39:13;23.63;;;4.28;;
70729;SDS011;58315;53.336;55.932;2023-02-27T06:41:39;8.52;;;4.10;;
70729;SDS011;58315;53.336;55.932;2023-02-27T06:44:05;14.48;;;4.85;;
70729;SDS011;58315;53.336;55.932;2023-02-27T06:46:31;26.20;;;5.63;;
70729;SDS011;58315;53.336;55.932;2023-02-27T06:48:57;14.15;;;4.38;;
70729;SDS011;58315;53.336;55.932;2023-02-27T06:51:23;9.93;;;3.78;;
70729;SDS011;58315;53.336;55.932;2023-02-27T06:53:49;14.20;;;4.50;;
70729;SDS011;58315;53.336;55.932;2023-02-27T06:56:15;13.13;;;4.47;;
70729;SDS011;58315;53.336;55.932;2023-02-27T06:58:41;8.82;;;3.75;;
70729;SDS011;58315;53.336;55.932;2023-02-27T07:01:07;9.68;;;4.07;;
70729;SDS011;58315;53.336;55.932;2023-02-27T07:03:52;11.23;;;3.70;;
70729;SDS011;58315;53.336;55.932;2023-02-27T07:06:18;9.40;;;4.60;;
70729;SDS011;58315;53.336;55.932;2023-02-27T07:08:44;8.82;;;3.35;;
70729;SDS011;58315;53.336;55.932;2023-02-27T07:11:10;11.52;;;4.65;;
70729;SDS011;58315;53.336;55.932;2023-02-27T07:13:36;6.53;;;3.28;;
70729;SDS011;58315;53.336;55.932;2023-02-27T07:16:02;7.97;;;3.33;;
70729;SDS011;58315;53.336;55.932;2023-02-27T07:18:29;8.88;;;3.10;;
70729;SDS011;58315;53.336;55.932;2023-02-27T07:20:55;6.88;;;3.05;;
70729;SDS011;58315;53.336;55.932;2023-02-27T07:23:21;12.50;;;4.13;;
70729;SDS011;58315;53.336;55.932;2023-02-27T07:25:48;8.93;;;3.78;;
70729;SDS011;58315;53.336;55.932;2023-02-27T07:28:14;9.38;;;3.47;;
70729;SDS011;58315;53.336;55.932;2023-02-27T07:31:00;5.05;;;3.17;;
70729;SDS011;58315;53.336;55.932;2023-02-27T07:33:26;17.55;;;4.38;;
70729;SDS011;58315;53.336;55.932;2023-02-27T07:35:52;20.80;;;3.38;;
70729;SDS011;58315;53.336;55.932;2023-02-27T07:38:18;17.15;;;4.32;;
70729;SDS011;58315;53.336;55.932;2023-02-27T07:40:47;9.38;;;4.03;;
70729;SDS011;58315;53.336;55.932;2023-02-27T07:43:13;13.27;;;4.75;;
70729;SDS011;58315;53.336;55.932;2023-02-27T07:45:40;10.45;;;4.00;;
70729;SDS011;58315;53.336;55.932;2023-02-27T07:48:07;11.43;;;4.38;;
70729;SDS011;58315;53.336;55.932;2023-02-27T07:50:33;13.05;;;4.22;;
70729;SDS011;58315;53.336;55.932;2023-02-27T07:52:59;7.75;;;3.97;;
70729;SDS011;58315;53.336;55.932;2023-02-27T07:55:24;12.15;;;3.72;;
70729;SDS011;58315;53.336;55.932;2023-02-27T07:57:50;9.48;;;4.03;;
70729;SDS011;58315;53.336;55.932;2023-02-27T08:00:16;9.60;;;3.92;;
70729;SDS011;58315;53.336;55.932;2023-02-27T08:05:28;16.25;;;3.95;;
70729;SDS011;58315;53.336;55.932;2023-02-27T08:07:54;10.05;;;3.55;;
70729;SDS011;58315;53.336;55.932;2023-02-27T08:10:20;9.75;;;4.10;;
70729;SDS011;58315;53.336;55.932;2023-02-27T08:12:46;5.90;;;2.70;;
70729;SDS011;58315;53.336;55.932;2023-02-27T08:15:11;8.80;;;3.45;;
70729;SDS011;58315;53.336;55.932;2023-02-27T08:17:38;8.15;;;3.70;;
70729;SDS011;58315;53.336;55.932;2023-02-27T08:20:04;11.18;;;4.20;;
70729;SDS011;58315;53.336;55.932;2023-02-27T08:22:32;8.00;;;3.72;;
70729;SDS011;58315;53.336;55.932;2023-02-27T08:24:58;6.47;;;2.83;;
70729;SDS011;58315;53.336;55.932;2023-02-27T08:27:24;16.25;;;3.60;;
70729;SDS011;58315;53.336;55.932;2023-02-27T08:29:50;11.55;;;3.78;;
70729;SDS011;58315;53.336;55.932;2023-02-27T08:32:16;12.05;;;3.20;;
70729;SDS011;58315;53.336;55.932;2023-02-27T08:34:42;9.45;;;3.72;;
70729;SDS011;58315;53.336;55.932;2023-02-27T08:37:08;21.88;;;4.63;;
70729;SDS011;58315;53.336;55.932;2023-02-27T08:39:34;10.60;;;3.83;;
70729;SDS011;58315;53.336;55.932;2023-02-27T08:42:18;5.30;;;2.35;;
70729;SDS011;58315;53.336;55.932;2023-02-27T08:44:44;9.32;;;3.28;;
70729;SDS011;58315;53.336;55.932;2023-02-27T08:47:10;6.38;;;3.63;;
70729;SDS011;58315;53.336;55.932;2023-02-27T08:49:36;9.43;;;4.43;;
70729;SDS011;58315;53.336;55.932;2023-02-27T08:52:02;17.30;;;3.95;;
70729;SDS011;58315;53.336;55.932;2023-02-27T08:54:30;13.98;;;5.20;;
70729;SDS011;58315;53.336;55.932;2023-02-27T08:57:16;9.88;;;3.92;;
70729;SDS011;58315;53.336;55.932;2023-02-27T08:59:42;12.57;;;5.53;;
70729;SDS011;58315;53.336;55.932;2023-02-27T09:02:08;9.75;;;4.30;;
70729;SDS011;58315;53.336;55.932;2023-02-27T09:04:35;19.77;;;4.82;;
70729;SDS011;58315;53.336;55.932;2023-02-27T09:07:01;12.55;;;5.25;;
70729;SDS011;58315;53.336;55.932;2023-02-27T09:09:27;7.75;;;3.65;;
70729;SDS011;58315;53.336;55.932;2023-02-27T09:11:53;10.65;;;5.53;;
70729;SDS011;58315;53.336;55.932;2023-02-27T09:14:19;11.82;;;5.15;;
70729;SDS011;58315;53.336;55.932;2023-02-27T09:16:45;10.85;;;4.22;;
70729;SDS011;58315;53.336;55.932;2023-02-27T09:19:11;21.52;;;5.72;;
70729;SDS011;58315;53.336;55.932;2023-02-27T09:21:39;10.93;;;5.10;;
70729;SDS011;58315;53.336;55.932;2023-02-27T09:24:05;8.23;;;4.47;;
70729;SDS011;58315;53.336;55.932;2023-02-27T09:26:31;8.40;;;4.05;;
70729;SDS011;58315;53.336;55.932;2023-02-27T09:28:57;10.57;;;3.72;;
70729;SDS011;58315;53.336;55.932;2023-02-27T09:31:23;14.00;;;4.32;;
70729;SDS011;58315;53.336;55.932;2023-02-27T09:33:49;5.65;;;3.00;;
70729;SDS011;58315;53.336;55.932;2023-02-27T09:36:15;9.20;;;3.92;;
70729;SDS011;58315;53.336;55.932;2023-02-27T09:38:41;7.68;;;3.65;;
70729;SDS011;58315;53.336;55.932;2023-02-27T09:41:19;16.23;;;4.60;;
70729;SDS011;58315;53.336;55.932;2023-02-27T09:43:53;12.93;;;3.60;;
70729;SDS011;58315;53.336;55.932;2023-02-27T09:49:04;8.63;;;3.78;;
70729;SDS011;58315;53.336;55.932;2023-02-27T09:51:30;15.27;;;3.15;;
70729;SDS011;58315;53.336;55.932;2023-02-27T09:53:57;8.45;;;4.00;;
70729;SDS011;58315;53.336;55.932;2023-02-27T09:56:32;12.38;;;3.28;;
70729;SDS011;58315;53.336;55.932;2023-02-27T10:01:38;8.43;;;3.55;;
70729;SDS011;58315;53.336;55.932;2023-02-27T10:04:23;8.35;;;3.55;;
70729;SDS011;58315;53.336;55.932;2023-02-27T10:07:15;7.15;;;2.88;;
70729;SDS011;58315;53.336;55.932;2023-02-27T10:15:38;10.38;;;4.55;;
70729;SDS011;58315;53.336;55.932;2023-02-27T10:21:06;16.98;;;4.70;;
70729;SDS011;58315;53.336;55.932;2023-02-27T10:23:52;7.60;;;4.05;;
70729;SDS011;58315;53.336;55.932;2023-02-27T10:26:24;8.95;;;3.90;;
70729;SDS011;58315;53.336;55.932;2023-02-27T10:28:52;8.68;;;3.85;;
70729;SDS011;58315;53.336;55.932;2023-02-27T10:31:22;8.55;;;2.92;;
70729;SDS011;58315;53.336;55.932;2023-02-27T10:33:51;9.48;;;3.90;;
70729;SDS011;58315;53.336;55.932;2023-02-27T10:36:18;12.00;;;3.63;;
70729;SDS011;58315;53.336;55.932;2023-02-27T10:38:51;9.38;;;2.97;;
70729;SDS011;58315;53.336;55.932;2023-02-27T10:41:22;6.38;;;3.35;;
70729;SDS011;58315;53.336;55.932;2023-02-27T10:43:50;10.20;;;3.72;;
70729;SDS011;58315;53.336;55.932;2023-02-27T10:46:25;6.38;;;3.13;;
70729;SDS011;58315;53.336;55.932;2023-02-27T10:48:54;9.93;;;3.47;;
70729;SDS011;58315;53.336;55.932;2023-02-27T10:51:29;13.75;;;3.55;;
70729;SDS011;58315;53.336;55.932;2023-02-27T10:56:52;5.63;;;2.65;;
70729;SDS011;58315;53.336;55.932;2023-02-27T10:59:22;4.85;;;2.25;;
70729;SDS011;58315;53.336;55.932;2023-02-27T11:01:50;5.88;;;2.97;;
70729;SDS011;58315;53.336;55.932;2023-02-27T11:06:59;10.90;;;2.88;;
70729;SDS011;58315;53.336;55.932;2023-02-27T11:09:29;4.18;;;2.35;;
70729;SDS011;58315;53.336;55.932;2023-02-27T11:15:28;4.38;;;2.05;;
70729;SDS011;58315;53.336;55.932;2023-02-27T11:17:40;4.70;;;2.33;;
70729;SDS011;58315;53.336;55.932;2023-02-27T11:20:40;4.57;;;2.47;;
70729;SDS011;58315;53.336;55.932;2023-02-27T11:23:15;3.97;;;1.90;;
70729;SDS011;58315;53.336;55.932;2023-02-27T11:25:44;3.75;;;2.13;;
70729;SDS011;58315;53.336;55.932;2023-02-27T11:28:19;4.07;;;2.08;;
70729;SDS011;58315;53.336;55.932;2023-02-27T11:30:54;3.72;;;2.10;;
70729;SDS011;58315;53.336;55.932;2023-02-27T11:33:22;4.47;;;2.88;;
70729;SDS011;58315;53.336;55.932;2023-02-27T11:36:08;5.47;;;2.17;;
70729;SDS011;58315;53.336;55.932;2023-02-27T11:38:34;4.85;;;2.65;;
70729;SDS011;58315;53.336;55.932;2023-02-27T11:41:03;5.20;;;1.98;;
70729;SDS011;58315;53.336;55.932;2023-02-27T11:43:32;5.43;;;2.47;;
70729;SDS011;58315;53.336;55.932;2023-02-27T11:46:05;5.80;;;2.25;;
70729;SDS011;58315;53.336;55.932;2023-02-27T11:53:55;2.67;;;1.58;;
70729;SDS011;58315;53.336;55.932;2023-02-27T11:56:32;4.47;;;2.10;;
70729;SDS011;58315;53.336;55.932;2023-02-27T12:04:27;2.33;;;1.50;;
70729;SDS011;58315;53.336;55.932;2023-02-27T12:07:05;3.70;;;1.85;;
70729;SDS011;58315;53.336;55.932;2023-02-27T12:15:31;2.88;;;1.35;;
70729;SDS011;58315;53.336;55.932;2023-02-27T12:18:37;4.13;;;1.85;;
70729;SDS011;58315;53.336;55.932;2023-02-27T12:21:22;2.40;;;1.38;;
70729;SDS011;58315;53.336;55.932;2023-02-27T12:24:14;2.05;;;1.23;;
70729;SDS011;58315;53.336;55.932;2023-02-27T12:26:45;2.58;;;1.23;;
70729;SDS011;58315;53.336;55.932;2023-02-27T12:37:03;2.63;;;1.55;;
70729;SDS011;58315;53.336;55.932;2023-02-27T12:39:34;2.58;;;1.40;;
70729;SDS011;58315;53.336;55.932;2023-02-27T12:51:04;1.13;;;0.73;;
70729;SDS011;58315;53.336;55.932;2023-02-27T12:54:02;3.60;;;1.55;;
70729;SDS011;58315;53.336;55.932;2023-02-27T13:16:33;2.92;;;1.50;;
70729;SDS011;58315;53.336;55.932;2023-02-27T13:24:43;2.50;;;1.75;;
70729;SDS011;58315;53.336;55.932;2023-02-27T13:29:49;1.92;;;1.38;;
70729;SDS011;58315;53.336;55.932;2023-02-27T13:32:27;3.53;;;1.58;;
70729;SDS011;58315;53.336;55.932;2023-02-27T13:35:01;3.13;;;1.70;;
70729;SDS011;58315;53.336;55.932;2023-02-27T13:38:01;2.88;;;1.80;;
70729;SDS011;58315;53.336;55.932;2023-02-27T13:40:47;2.42;;;1.63;;
70729;SDS011;58315;53.336;55.932;2023-02-27T13:43:27;3.13;;;1.95;;
70729;SDS011;58315;53.336;55.932;2023-02-27T13:46:20;2.75;;;1.60;;
70729;SDS011;58315;53.336;55.932;2023-02-27T13:48:53;2.55;;;1.67;;
70729;SDS011;58315;53.336;55.932;2023-02-27T14:05:06;3.22;;;1.70;;
70729;SDS011;58315;53.336;55.932;2023-02-27T14:10:36;5.57;;;2.25;;
70729;SDS011;58315;53.336;55.932;2023-02-27T14:13:20;4.90;;;2.20;;
70729;SDS011;58315;53.336;55.932;2023-02-27T14:16:10;2.80;;;1.77;;
70729;SDS011;58315;53.336;55.932;2023-02-27T14:18:57;3.72;;;2.30;;
70729;SDS011;58315;53.336;55.932;2023-02-27T14:25:23;2.97;;;1.77;;
70729;SDS011;58315;53.336;55.932;2023-02-27T14:28:01;3.22;;;1.95;;
70729;SDS011;58315;53.336;55.932;2023-02-27T14:30:39;4.60;;;2.55;;
70729;SDS011;58315;53.336;55.932;2023-02-27T14:33:44;2.75;;;1.70;;
70729;SDS011;58315;53.336;55.932;2023-02-27T14:36:23;4.00;;;2.37;;
70729;SDS011;58315;53.336;55.932;2023-02-27T14:38:55;3.83;;;2.10;;
70729;SDS011;58315;53.336;55.932;2023-02-27T14:44:20;3.08;;;2.03;;
70729;SDS011;58315;53.336;55.932;2023-02-27T14:46:49;4.25;;;2.63;;
70729;SDS011;58315;53.336;55.932;2023-02-27T14:49:31;5.50;;;2.53;;
70729;SDS011;58315;53.336;55.932;2023-02-27T14:52:13;4.25;;;2.78;;
70729;SDS011;58315;53.336;55.932;2023-02-27T14:54:46;3.55;;;2.00;;
70729;SDS011;58315;53.336;55.932;2023-02-27T14:57:22;5.80;;;2.33;;
70729;SDS011;58315;53.336;55.932;2023-02-27T14:59:51;3.92;;;2.53;;
70729;SDS011;58315;53.336;55.932;2023-02-27T15:02:22;4.93;;;2.63;;
70729;SDS011;58315;53.336;55.932;2023-02-27T15:04:55;4.97;;;2.58;;
70729;SDS011;58315;53.336;55.932;2023-02-27T15:07:40;4.22;;;2.63;;
70729;SDS011;58315;53.336;55.932;2023-02-27T15:10:18;5.53;;;2.88;;
70729;SDS011;58315;53.336;55.932;2023-02-27T15:12:56;3.35;;;2.10;;
70729;SDS011;58315;53.336;55.932;2023-02-27T15:15:24;5.00;;;2.60;;
70729;SDS011;58315;53.336;55.932;2023-02-27T15:17:51;6.30;;;2.95;;
70729;SDS011;58315;53.336;55.932;2023-02-27T15:20:24;4.20;;;2.53;;
70729;SDS011;58315;53.336;55.932;2023-02-27T15:22:58;5.45;;;3.30;;
70729;SDS011;58315;53.336;55.932;2023-02-27T15:25:33;14.32;;;3.25;;
70729;SDS011;58315;53.336;55.932;2023-02-27T15:28:03;6.20;;;3.40;;
70729;SDS011;58315;53.336;55.932;2023-02-27T15:30:31;6.55;;;3.50;;
70729;SDS011;58315;53.336;55.932;2023-02-27T15:32:58;4.97;;;2.92;;
70729;SDS011;58315;53.336;55.932;2023-02-27T15:35:29;5.15;;;3.20;;
70729;SDS011;58315;53.336;55.932;2023-02-27T15:38:01;5.43;;;3.22;;
70729;SDS011;58315;53.336;55.932;2023-02-27T15:40:28;7.20;;;3.42;;
70729;SDS011;58315;53.336;55.932;2023-02-27T15:42:55;4.22;;;2.58;;
70729;SDS011;58315;53.336;55.932;2023-02-27T15:45:30;4.93;;;3.25;;
70729;SDS011;58315;53.336;55.932;2023-02-27T15:47:58;6.82;;;3.22;;
70729;SDS011;58315;53.336;55.932;2023-02-27T15:50:26;5.05;;;3.03;;
70729;SDS011;58315;53.336;55.932;2023-02-27T15:52:58;5.57;;;2.80;;
70729;SDS011;58315;53.336;55.932;2023-02-27T15:55:31;6.80;;;3.10;;
70729;SDS011;58315;53.336;55.932;2023-02-27T15:58:00;5.10;;;2.78;;
70729;SDS011;58315;53.336;55.932;2023-02-27T16:00:26;4.18;;;2.45;;
70729;SDS011;58315;53.336;55.932;2023-02-27T16:02:56;5.03;;;2.78;;
70729;SDS011;58315;53.336;55.932;2023-02-27T16:07:58;8.77;;;3.20;;
70729;SDS011;58315;53.336;55.932;2023-02-27T16:10:34;6.38;;;2.90;;
70729;SDS011;58315;53.336;55.932;2023-02-27T16:18:43;7.78;;;3.03;;
70729;SDS011;58315;53.336;55.932;2023-02-27T16:21:19;5.50;;;2.95;;
70729;SDS011;58315;53.336;55.932;2023-02-27T16:23:47;4.60;;;2.90;;
70729;SDS011;58315;53.336;55.932;2023-02-27T16:31:46;5.13;;;2.90;;
70729;SDS011;58315;53.336;55.932;2023-02-27T16:34:29;8.27;;;3.60;;
70729;SDS011;58315;53.336;55.932;2023-02-27T16:37:00;4.43;;;2.90;;
70729;SDS011;58315;53.336;55.932;2023-02-27T16:39:29;4.78;;;3.20;;
70729;SDS011;58315;53.336;55.932;2023-02-27T16:41:57;9.57;;;3.92;;
70729;SDS011;58315;53.336;55.932;2023-02-27T16:44:24;7.25;;;4.05;;
70729;SDS011;58315;53.336;55.932;2023-02-27T16:46:51;7.47;;;3.90;;
70729;SDS011;58315;53.336;55.932;2023-02-27T16:49:24;8.30;;;4.18;;
70729;SDS011;58315;53.336;55.932;2023-02-27T16:51:52;10.98;;;4.50;;
70729;SDS011;58315;53.336;55.932;2023-02-27T16:54:18;6.97;;;4.20;;
70729;SDS011;58315;53.336;55.932;2023-02-27T16:56:45;7.55;;;4.63;;
70729;SDS011;58315;53.336;55.932;2023-02-27T17:01:50;10.75;;;4.15;;
70729;SDS011;58315;53.336;55.932;2023-02-27T17:04:15;7.70;;;4.25;;
70729;SDS011;58315;53.336;55.932;2023-02-27T17:06:41;8.55;;;4.35;;
70729;SDS011;58315;53.336;55.932;2023-02-27T17:09:11;9.43;;;4.82;;
70729;SDS011;58315;53.336;55.932;2023-02-27T17:11:39;9.40;;;4.53;;
70729;SDS011;58315;53.336;55.932;2023-02-27T17:14:05;9.77;;;5.05;;
70729;SDS011;58315;53.336;55.932;2023-02-27T17:16:31;9.43;;;4.63;;
70729;SDS011;58315;53.336;55.932;2023-02-27T17:19:00;7.82;;;4.45;;
70729;SDS011;58315;53.336;55.932;2023-02-27T17:21:26;8.18;;;3.95;;
70729;SDS011;58315;53.336;55.932;2023-02-27T17:23:52;8.73;;;4.30;;
70729;SDS011;58315;53.336;55.932;2023-02-27T17:26:36;10.65;;;3.92;;
70729;SDS011;58315;53.336;55.932;2023-02-27T17:29:03;9.02;;;4.20;;
70729;SDS011;58315;53.336;55.932;2023-02-27T17:31:29;8.68;;;4.50;;
70729;SDS011;58315;53.336;55.932;2023-02-27T17:33:55;9.40;;;4.25;;
70729;SDS011;58315;53.336;55.932;2023-02-27T17:36:22;10.70;;;4.88;;
70729;SDS011;58315;53.336;55.932;2023-02-27T17:38:57;11.68;;;4.75;;
70729;SDS011;58315;53.336;55.932;2023-02-27T17:41:28;11.77;;;4.68;;
70729;SDS011;58315;53.336;55.932;2023-02-27T17:43:55;8.25;;;4.30;;
70729;SDS011;58315;53.336;55.932;2023-02-27T17:46:23;8.20;;;3.78;;
70729;SDS011;58315;53.336;55.932;2023-02-27T17:48:50;9.68;;;4.80;;
70729;SDS011;58315;53.336;55.932;2023-02-27T17:51:35;9.15;;;4.68;;
70729;SDS011;58315;53.336;55.932;2023-02-27T17:54:02;9.38;;;4.50;;
70729;SDS011;58315;53.336;55.932;2023-02-27T17:56:30;12.15;;;4.80;;
70729;SDS011;58315;53.336;55.932;2023-02-27T17:58:56;10.52;;;5.13;;
70729;SDS011;58315;53.336;55.932;2023-02-27T18:01:22;10.45;;;4.47;;
70729;SDS011;58315;53.336;55.932;2023-02-27T18:03:50;13.13;;;4.25;;
70729;SDS011;58315;53.336;55.932;2023-02-27T18:06:17;12.82;;;5.32;;
70729;SDS011;58315;53.336;55.932;2023-02-27T18:08:44;9.63;;;5.28;;
70729;SDS011;58315;53.336;55.932;2023-02-27T18:11:11;13.50;;;4.20;;
70729;SDS011;58315;53.336;55.932;2023-02-27T18:13:39;11.52;;;5.32;;
70729;SDS011;58315;53.336;55.932;2023-02-27T18:16:06;6.95;;;3.50;;
70729;SDS011;58315;53.336;55.932;2023-02-27T18:18:36;8.27;;;4.72;;
70729;SDS011;58315;53.336;55.932;2023-02-27T18:21:07;9.55;;;4.53;;
70729;SDS011;58315;53.336;55.932;2023-02-27T18:23:35;10.32;;;5.00;;
70729;SDS011;58315;53.336;55.932;2023-02-27T18:26:02;11.65;;;4.68;;